sensor_id;sensor_type;location;lat;lon;timestamp;P1;durP1;ratioP1;P2;durP2;ratioP2
10715;SDS011;5409;42.620;23.316;2024-03-08T00:00:13;18.67;;;8.02;;
10715;SDS011;5409;42.620;23.316;2024-03-08T00:02:43;18.52;;;8.43;;
10715;SDS011;5409;42.620;23.316;2024-03-08T00:05:10;19.50;;;8.20;;
10715;SDS011;5409;42.620;23.316;2024-03-08T00:07:36;21.30;;;8.52;;
10715;SDS011;5409;42.620;23.316;2024-03-08T00:10:06;21.02;;;9.38;;
10715;SDS011;5409;42.620;23.316;2024-03-08T00:12:45;19.75;;;8.70;;
10715;SDS011;5409;42.620;23.316;2024-03-08T00:15:12;18.98;;;8.50;;
10715;SDS011;5409;42.620;23.316;2024-03-08T00:17:41;20.67;;;8.88;;
10715;SDS011;5409;42.620;23.316;2024-03-08T00:20:07;19.73;;;8.50;;
10715;SDS011;5409;42.620;23.316;2024-03-08T00:22:35;19.80;;;8.43;;
10715;SDS011;5409;42.620;23.316;2024-03-08T00:25:02;21.08;;;10.73;;
10715;SDS011;5409;42.620;23.316;2024-03-08T00:27:28;31.33;;;8.95;;
10715;SDS011;5409;42.620;23.316;2024-03-08T00:29:55;17.67;;;7.97;;
10715;SDS011;5409;42.620;23.316;2024-03-08T00:32:20;22.92;;;8.80;;
10715;SDS011;5409;42.620;23.316;2024-03-08T00:34:49;16.98;;;7.72;;
10715;SDS011;5409;42.620;23.316;2024-03-08T00:37:16;20.60;;;9.15;;
10715;SDS011;5409;42.620;23.316;2024-03-08T00:39:42;16.08;;;7.60;;
10715;SDS011;5409;42.620;23.316;2024-03-08T00:42:07;15.77;;;7.60;;
10715;SDS011;5409;42.620;23.316;2024-03-08T00:44:33;16.13;;;7.43;;
10715;SDS011;5409;42.620;23.316;2024-03-08T00:46:58;17.90;;;8.63;;
10715;SDS011;5409;42.620;23.316;2024-03-08T00:49:24;17.55;;;8.40;;
10715;SDS011;5409;42.620;23.316;2024-03-08T00:51:50;17.13;;;8.27;;
10715;SDS011;5409;42.620;23.316;2024-03-08T00:54:15;13.45;;;6.22;;
10715;SDS011;5409;42.620;23.316;2024-03-08T00:56:41;17.33;;;7.68;;
10715;SDS011;5409;42.620;23.316;2024-03-08T00:59:07;17.52;;;8.32;;
10715;SDS011;5409;42.620;23.316;2024-03-08T01:01:32;14.80;;;7.32;;
10715;SDS011;5409;42.620;23.316;2024-03-08T01:03:58;13.02;;;7.28;;
10715;SDS011;5409;42.620;23.316;2024-03-08T01:06:23;18.23;;;6.32;;
10715;SDS011;5409;42.620;23.316;2024-03-08T01:08:49;50.40;;;9.02;;
10715;SDS011;5409;42.620;23.316;2024-03-08T01:11:16;230.70;;;13.45;;
10715;SDS011;5409;42.620;23.316;2024-03-08T01:13:43;91.43;;;8.63;;
10715;SDS011;5409;42.620;23.316;2024-03-08T01:16:08;202.23;;;11.00;;
10715;SDS011;5409;42.620;23.316;2024-03-08T01:18:34;95.18;;;7.70;;
10715;SDS011;5409;42.620;23.316;2024-03-08T01:20:59;163.32;;;9.32;;
10715;SDS011;5409;42.620;23.316;2024-03-08T01:23:25;134.77;;;8.73;;
10715;SDS011;5409;42.620;23.316;2024-03-08T01:25:50;101.05;;;7.00;;
10715;SDS011;5409;42.620;23.316;2024-03-08T01:28:22;139.73;;;8.02;;
10715;SDS011;5409;42.620;23.316;2024-03-08T01:30:48;121.75;;;9.82;;
10715;SDS011;5409;42.620;23.316;2024-03-08T01:33:15;48.30;;;5.90;;
10715;SDS011;5409;42.620;23.316;2024-03-08T01:35:40;42.70;;;5.50;;
10715;SDS011;5409;42.620;23.316;2024-03-08T01:38:06;60.45;;;5.35;;
10715;SDS011;5409;42.620;23.316;2024-03-08T01:40:32;18.75;;;3.67;;
10715;SDS011;5409;42.620;23.316;2024-03-08T01:42:57;71.45;;;5.50;;
10715;SDS011;5409;42.620;23.316;2024-03-08T01:45:41;84.20;;;5.40;;
10715;SDS011;5409;42.620;23.316;2024-03-08T01:48:07;74.22;;;4.55;;
10715;SDS011;5409;42.620;23.316;2024-03-08T01:50:32;64.32;;;4.82;;
10715;SDS011;5409;42.620;23.316;2024-03-08T01:52:57;45.65;;;4.85;;
10715;SDS011;5409;42.620;23.316;2024-03-08T01:55:25;104.85;;;6.10;;
10715;SDS011;5409;42.620;23.316;2024-03-08T01:57:50;27.73;;;3.92;;
10715;SDS011;5409;42.620;23.316;2024-03-08T02:00:16;25.65;;;4.10;;
10715;SDS011;5409;42.620;23.316;2024-03-08T02:02:44;33.97;;;4.35;;
10715;SDS011;5409;42.620;23.316;2024-03-08T02:05:12;34.50;;;3.65;;
10715;SDS011;5409;42.620;23.316;2024-03-08T02:07:40;49.38;;;4.80;;
10715;SDS011;5409;42.620;23.316;2024-03-08T02:10:09;49.53;;;4.60;;
10715;SDS011;5409;42.620;23.316;2024-03-08T02:12:35;37.20;;;4.68;;
10715;SDS011;5409;42.620;23.316;2024-03-08T02:15:00;37.25;;;6.70;;
10715;SDS011;5409;42.620;23.316;2024-03-08T02:17:26;42.30;;;4.88;;
10715;SDS011;5409;42.620;23.316;2024-03-08T02:19:51;32.05;;;3.92;;
10715;SDS011;5409;42.620;23.316;2024-03-08T02:22:17;40.95;;;5.03;;
10715;SDS011;5409;42.620;23.316;2024-03-08T02:24:42;42.05;;;4.30;;
10715;SDS011;5409;42.620;23.316;2024-03-08T02:27:08;20.80;;;4.07;;
10715;SDS011;5409;42.620;23.316;2024-03-08T02:29:36;49.30;;;4.78;;
10715;SDS011;5409;42.620;23.316;2024-03-08T02:32:02;58.22;;;5.60;;
10715;SDS011;5409;42.620;23.316;2024-03-08T02:34:28;50.85;;;5.13;;
10715;SDS011;5409;42.620;23.316;2024-03-08T02:36:54;30.23;;;3.72;;
10715;SDS011;5409;42.620;23.316;2024-03-08T02:39:21;24.80;;;4.78;;
10715;SDS011;5409;42.620;23.316;2024-03-08T02:41:47;10.93;;;3.45;;
10715;SDS011;5409;42.620;23.316;2024-03-08T02:44:12;5.93;;;3.30;;
10715;SDS011;5409;42.620;23.316;2024-03-08T02:46:38;6.93;;;3.20;;
10715;SDS011;5409;42.620;23.316;2024-03-08T02:49:03;3.97;;;3.10;;
10715;SDS011;5409;42.620;23.316;2024-03-08T02:51:29;4.97;;;3.08;;
10715;SDS011;5409;42.620;23.316;2024-03-08T02:53:55;3.90;;;2.50;;
10715;SDS011;5409;42.620;23.316;2024-03-08T02:56:21;4.75;;;3.17;;
10715;SDS011;5409;42.620;23.316;2024-03-08T02:58:47;3.72;;;2.70;;
10715;SDS011;5409;42.620;23.316;2024-03-08T03:01:13;5.07;;;2.72;;
10715;SDS011;5409;42.620;23.316;2024-03-08T03:03:40;2.25;;;1.90;;
10715;SDS011;5409;42.620;23.316;2024-03-08T03:06:06;2.40;;;1.70;;
10715;SDS011;5409;42.620;23.316;2024-03-08T03:08:32;1.67;;;1.58;;
10715;SDS011;5409;42.620;23.316;2024-03-08T03:10:57;1.60;;;1.50;;
10715;SDS011;5409;42.620;23.316;2024-03-08T03:13:23;2.20;;;1.45;;
10715;SDS011;5409;42.620;23.316;2024-03-08T03:15:48;1.60;;;1.17;;
10715;SDS011;5409;42.620;23.316;2024-03-08T03:18:13;1.52;;;1.42;;
10715;SDS011;5409;42.620;23.316;2024-03-08T03:20:40;3.13;;;1.25;;
10715;SDS011;5409;42.620;23.316;2024-03-08T03:23:07;1.98;;;1.73;;
10715;SDS011;5409;42.620;23.316;2024-03-08T03:25:34;1.50;;;1.40;;
10715;SDS011;5409;42.620;23.316;2024-03-08T03:28:00;1.52;;;1.02;;
10715;SDS011;5409;42.620;23.316;2024-03-08T03:30:26;1.33;;;1.13;;
10715;SDS011;5409;42.620;23.316;2024-03-08T03:32:55;1.02;;;0.95;;
10715;SDS011;5409;42.620;23.316;2024-03-08T03:35:23;1.13;;;1.00;;
10715;SDS011;5409;42.620;23.316;2024-03-08T03:37:49;1.40;;;1.30;;
10715;SDS011;5409;42.620;23.316;2024-03-08T03:40:30;1.33;;;1.23;;
10715;SDS011;5409;42.620;23.316;2024-03-08T03:42:56;1.25;;;1.23;;
10715;SDS011;5409;42.620;23.316;2024-03-08T03:45:22;1.42;;;0.95;;
10715;SDS011;5409;42.620;23.316;2024-03-08T03:47:48;1.10;;;1.00;;
10715;SDS011;5409;42.620;23.316;2024-03-08T03:50:13;1.33;;;0.90;;
10715;SDS011;5409;42.620;23.316;2024-03-08T03:52:39;1.35;;;1.10;;
10715;SDS011;5409;42.620;23.316;2024-03-08T03:55:04;1.08;;;0.88;;
10715;SDS011;5409;42.620;23.316;2024-03-08T03:57:30;1.13;;;0.95;;
10715;SDS011;5409;42.620;23.316;2024-03-08T03:59:56;0.68;;;0.68;;
10715;SDS011;5409;42.620;23.316;2024-03-08T04:02:23;0.75;;;0.73;;
10715;SDS011;5409;42.620;23.316;2024-03-08T04:04:50;1.20;;;1.15;;
10715;SDS011;5409;42.620;23.316;2024-03-08T04:07:15;0.75;;;0.73;;
10715;SDS011;5409;42.620;23.316;2024-03-08T04:09:41;0.80;;;0.80;;
10715;SDS011;5409;42.620;23.316;2024-03-08T04:12:07;0.90;;;0.90;;
10715;SDS011;5409;42.620;23.316;2024-03-08T04:14:32;1.25;;;0.90;;
10715;SDS011;5409;42.620;23.316;2024-03-08T04:16:58;0.95;;;0.70;;
10715;SDS011;5409;42.620;23.316;2024-03-08T04:19:23;1.42;;;1.33;;
10715;SDS011;5409;42.620;23.316;2024-03-08T04:21:49;1.80;;;1.70;;
10715;SDS011;5409;42.620;23.316;2024-03-08T04:24:14;1.15;;;0.80;;
10715;SDS011;5409;42.620;23.316;2024-03-08T04:26:42;0.77;;;0.77;;
10715;SDS011;5409;42.620;23.316;2024-03-08T04:29:07;2.92;;;1.95;;
10715;SDS011;5409;42.620;23.316;2024-03-08T04:31:33;1.60;;;1.13;;
10715;SDS011;5409;42.620;23.316;2024-03-08T04:33:58;0.75;;;0.70;;
10715;SDS011;5409;42.620;23.316;2024-03-08T04:36:24;1.30;;;0.90;;
10715;SDS011;5409;42.620;23.316;2024-03-08T04:38:50;0.85;;;0.85;;
10715;SDS011;5409;42.620;23.316;2024-03-08T04:41:16;0.73;;;0.73;;
10715;SDS011;5409;42.620;23.316;2024-03-08T04:43:42;0.90;;;0.80;;
10715;SDS011;5409;42.620;23.316;2024-03-08T04:46:07;1.10;;;1.00;;
10715;SDS011;5409;42.620;23.316;2024-03-08T04:48:33;0.80;;;0.80;;
10715;SDS011;5409;42.620;23.316;2024-03-08T04:51:01;0.60;;;0.60;;
10715;SDS011;5409;42.620;23.316;2024-03-08T04:53:27;0.70;;;0.70;;
10715;SDS011;5409;42.620;23.316;2024-03-08T04:55:54;3.47;;;2.38;;
10715;SDS011;5409;42.620;23.316;2024-03-08T04:58:19;0.93;;;0.82;;
10715;SDS011;5409;42.620;23.316;2024-03-08T05:00:45;2.55;;;1.13;;
10715;SDS011;5409;42.620;23.316;2024-03-08T05:03:11;1.20;;;1.02;;
10715;SDS011;5409;42.620;23.316;2024-03-08T05:05:36;0.80;;;0.80;;
10715;SDS011;5409;42.620;23.316;2024-03-08T05:08:02;0.75;;;0.70;;
10715;SDS011;5409;42.620;23.316;2024-03-08T05:10:27;1.58;;;0.90;;
10715;SDS011;5409;42.620;23.316;2024-03-08T05:12:53;2.05;;;0.90;;
10715;SDS011;5409;42.620;23.316;2024-03-08T05:15:18;0.93;;;0.85;;
10715;SDS011;5409;42.620;23.316;2024-03-08T05:17:45;1.38;;;1.25;;
10715;SDS011;5409;42.620;23.316;2024-03-08T05:20:11;1.02;;;1.00;;
10715;SDS011;5409;42.620;23.316;2024-03-08T05:22:38;1.60;;;0.82;;
10715;SDS011;5409;42.620;23.316;2024-03-08T05:25:05;1.05;;;0.77;;
10715;SDS011;5409;42.620;23.316;2024-03-08T05:27:33;1.15;;;1.05;;
10715;SDS011;5409;42.620;23.316;2024-03-08T05:29:59;0.80;;;0.65;;
10715;SDS011;5409;42.620;23.316;2024-03-08T05:32:24;1.00;;;0.95;;
10715;SDS011;5409;42.620;23.316;2024-03-08T05:34:50;1.63;;;1.48;;
10715;SDS011;5409;42.620;23.316;2024-03-08T05:37:15;1.23;;;1.13;;
10715;SDS011;5409;42.620;23.316;2024-03-08T05:39:41;1.60;;;1.50;;
10715;SDS011;5409;42.620;23.316;2024-03-08T05:42:06;1.45;;;1.35;;
10715;SDS011;5409;42.620;23.316;2024-03-08T05:44:33;1.30;;;1.20;;
10715;SDS011;5409;42.620;23.316;2024-03-08T05:46:59;1.30;;;1.10;;
10715;SDS011;5409;42.620;23.316;2024-03-08T05:49:25;1.48;;;1.30;;
10715;SDS011;5409;42.620;23.316;2024-03-08T05:51:50;2.70;;;1.80;;
10715;SDS011;5409;42.620;23.316;2024-03-08T05:54:16;4.20;;;2.83;;
10715;SDS011;5409;42.620;23.316;2024-03-08T05:56:41;16.13;;;5.50;;
10715;SDS011;5409;42.620;23.316;2024-03-08T05:59:08;4.85;;;3.45;;
10715;SDS011;5409;42.620;23.316;2024-03-08T06:01:34;3.35;;;2.75;;
10715;SDS011;5409;42.620;23.316;2024-03-08T06:04:02;2.63;;;2.42;;
10715;SDS011;5409;42.620;23.316;2024-03-08T06:06:28;6.20;;;3.08;;
10715;SDS011;5409;42.620;23.316;2024-03-08T06:08:54;3.72;;;2.58;;
10715;SDS011;5409;42.620;23.316;2024-03-08T06:11:21;3.30;;;2.85;;
10715;SDS011;5409;42.620;23.316;2024-03-08T06:13:47;4.72;;;2.95;;
10715;SDS011;5409;42.620;23.316;2024-03-08T06:16:13;6.07;;;3.75;;
10715;SDS011;5409;42.620;23.316;2024-03-08T06:18:39;4.97;;;3.50;;
10715;SDS011;5409;42.620;23.316;2024-03-08T06:21:04;5.07;;;3.20;;
10715;SDS011;5409;42.620;23.316;2024-03-08T06:23:41;4.07;;;3.33;;
10715;SDS011;5409;42.620;23.316;2024-03-08T06:26:09;4.95;;;3.83;;
10715;SDS011;5409;42.620;23.316;2024-03-08T06:28:34;4.03;;;3.45;;
10715;SDS011;5409;42.620;23.316;2024-03-08T06:31:00;5.03;;;3.90;;
10715;SDS011;5409;42.620;23.316;2024-03-08T06:33:26;5.13;;;4.40;;
10715;SDS011;5409;42.620;23.316;2024-03-08T06:35:52;6.20;;;4.13;;
10715;SDS011;5409;42.620;23.316;2024-03-08T06:38:22;6.40;;;4.45;;
10715;SDS011;5409;42.620;23.316;2024-03-08T06:40:47;6.50;;;5.43;;
10715;SDS011;5409;42.620;23.316;2024-03-08T06:43:13;5.20;;;3.35;;
10715;SDS011;5409;42.620;23.316;2024-03-08T06:45:41;7.50;;;3.92;;
10715;SDS011;5409;42.620;23.316;2024-03-08T06:48:13;8.23;;;4.35;;
10715;SDS011;5409;42.620;23.316;2024-03-08T06:50:42;6.47;;;3.45;;
10715;SDS011;5409;42.620;23.316;2024-03-08T06:53:11;3.35;;;2.83;;
10715;SDS011;5409;42.620;23.316;2024-03-08T06:55:37;7.07;;;3.80;;
10715;SDS011;5409;42.620;23.316;2024-03-08T06:58:02;4.95;;;3.35;;
10715;SDS011;5409;42.620;23.316;2024-03-08T07:00:28;6.82;;;4.32;;
10715;SDS011;5409;42.620;23.316;2024-03-08T07:02:55;6.57;;;4.95;;
10715;SDS011;5409;42.620;23.316;2024-03-08T07:05:27;8.95;;;6.55;;
10715;SDS011;5409;42.620;23.316;2024-03-08T07:07:53;7.55;;;5.20;;
10715;SDS011;5409;42.620;23.316;2024-03-08T07:10:19;6.70;;;4.68;;
10715;SDS011;5409;42.620;23.316;2024-03-08T07:12:51;7.25;;;4.57;;
10715;SDS011;5409;42.620;23.316;2024-03-08T07:15:18;6.72;;;4.20;;
10715;SDS011;5409;42.620;23.316;2024-03-08T07:17:44;5.90;;;3.50;;
10715;SDS011;5409;42.620;23.316;2024-03-08T07:20:11;6.45;;;4.85;;
10715;SDS011;5409;42.620;23.316;2024-03-08T07:22:38;6.70;;;3.72;;
10715;SDS011;5409;42.620;23.316;2024-03-08T07:25:07;6.93;;;3.53;;
10715;SDS011;5409;42.620;23.316;2024-03-08T07:27:33;5.63;;;3.60;;
10715;SDS011;5409;42.620;23.316;2024-03-08T07:30:04;6.78;;;4.70;;
10715;SDS011;5409;42.620;23.316;2024-03-08T07:32:30;8.35;;;4.20;;
10715;SDS011;5409;42.620;23.316;2024-03-08T07:34:56;6.43;;;3.90;;
10715;SDS011;5409;42.620;23.316;2024-03-08T07:37:22;5.03;;;4.13;;
10715;SDS011;5409;42.620;23.316;2024-03-08T07:39:48;4.78;;;3.47;;
10715;SDS011;5409;42.620;23.316;2024-03-08T07:42:14;4.45;;;3.60;;
10715;SDS011;5409;42.620;23.316;2024-03-08T07:44:40;5.85;;;3.20;;
10715;SDS011;5409;42.620;23.316;2024-03-08T07:47:06;7.50;;;3.47;;
10715;SDS011;5409;42.620;23.316;2024-03-08T07:49:34;5.20;;;4.55;;
10715;SDS011;5409;42.620;23.316;2024-03-08T07:52:00;3.88;;;3.08;;
10715;SDS011;5409;42.620;23.316;2024-03-08T07:54:25;5.20;;;3.70;;
10715;SDS011;5409;42.620;23.316;2024-03-08T07:56:51;4.47;;;3.40;;
10715;SDS011;5409;42.620;23.316;2024-03-08T07:59:17;6.18;;;3.83;;
10715;SDS011;5409;42.620;23.316;2024-03-08T08:01:42;6.63;;;3.88;;
10715;SDS011;5409;42.620;23.316;2024-03-08T08:04:09;7.60;;;4.50;;
10715;SDS011;5409;42.620;23.316;2024-03-08T08:06:37;6.72;;;4.78;;
10715;SDS011;5409;42.620;23.316;2024-03-08T08:09:05;7.22;;;3.95;;
10715;SDS011;5409;42.620;23.316;2024-03-08T08:11:31;7.82;;;4.35;;
10715;SDS011;5409;42.620;23.316;2024-03-08T08:13:57;4.43;;;3.60;;
10715;SDS011;5409;42.620;23.316;2024-03-08T08:16:24;6.03;;;3.25;;
10715;SDS011;5409;42.620;23.316;2024-03-08T08:18:50;5.07;;;3.60;;
10715;SDS011;5409;42.620;23.316;2024-03-08T08:21:17;6.15;;;3.55;;
10715;SDS011;5409;42.620;23.316;2024-03-08T08:23:43;5.05;;;3.55;;
10715;SDS011;5409;42.620;23.316;2024-03-08T08:26:09;6.78;;;6.05;;
10715;SDS011;5409;42.620;23.316;2024-03-08T08:28:36;7.43;;;4.70;;
10715;SDS011;5409;42.620;23.316;2024-03-08T08:31:01;5.85;;;3.92;;
10715;SDS011;5409;42.620;23.316;2024-03-08T08:33:29;9.40;;;3.50;;
10715;SDS011;5409;42.620;23.316;2024-03-08T08:35:54;4.25;;;3.85;;
10715;SDS011;5409;42.620;23.316;2024-03-08T08:38:20;6.18;;;4.05;;
10715;SDS011;5409;42.620;23.316;2024-03-08T08:40:45;6.07;;;3.67;;
10715;SDS011;5409;42.620;23.316;2024-03-08T08:43:12;8.18;;;4.05;;
10715;SDS011;5409;42.620;23.316;2024-03-08T08:45:39;10.60;;;4.00;;
10715;SDS011;5409;42.620;23.316;2024-03-08T08:48:05;5.93;;;3.92;;
10715;SDS011;5409;42.620;23.316;2024-03-08T08:50:31;5.70;;;4.25;;
10715;SDS011;5409;42.620;23.316;2024-03-08T08:52:57;6.57;;;3.85;;
10715;SDS011;5409;42.620;23.316;2024-03-08T08:55:23;8.00;;;4.15;;
10715;SDS011;5409;42.620;23.316;2024-03-08T08:57:50;6.35;;;4.53;;
10715;SDS011;5409;42.620;23.316;2024-03-08T09:00:17;6.22;;;5.32;;
10715;SDS011;5409;42.620;23.316;2024-03-08T09:02:45;5.50;;;4.18;;
10715;SDS011;5409;42.620;23.316;2024-03-08T09:05:10;5.22;;;4.15;;
10715;SDS011;5409;42.620;23.316;2024-03-08T09:07:41;4.05;;;3.40;;
10715;SDS011;5409;42.620;23.316;2024-03-08T09:10:09;3.13;;;2.75;;
10715;SDS011;5409;42.620;23.316;2024-03-08T09:12:34;4.38;;;3.03;;
10715;SDS011;5409;42.620;23.316;2024-03-08T09:15:00;3.30;;;2.92;;
10715;SDS011;5409;42.620;23.316;2024-03-08T09:17:25;3.20;;;2.90;;
10715;SDS011;5409;42.620;23.316;2024-03-08T09:19:51;4.00;;;3.60;;
10715;SDS011;5409;42.620;23.316;2024-03-08T09:22:16;4.88;;;3.40;;
10715;SDS011;5409;42.620;23.316;2024-03-08T09:24:43;4.18;;;3.40;;
10715;SDS011;5409;42.620;23.316;2024-03-08T09:27:08;7.03;;;4.80;;
10715;SDS011;5409;42.620;23.316;2024-03-08T09:29:35;5.45;;;3.58;;
10715;SDS011;5409;42.620;23.316;2024-03-08T09:32:00;5.30;;;3.17;;
10715;SDS011;5409;42.620;23.316;2024-03-08T09:34:26;10.73;;;3.92;;
10715;SDS011;5409;42.620;23.316;2024-03-08T09:36:51;3.88;;;3.35;;
10715;SDS011;5409;42.620;23.316;2024-03-08T09:39:17;5.18;;;3.40;;
10715;SDS011;5409;42.620;23.316;2024-03-08T09:41:45;7.93;;;3.88;;
10715;SDS011;5409;42.620;23.316;2024-03-08T09:44:17;4.97;;;3.80;;
10715;SDS011;5409;42.620;23.316;2024-03-08T09:46:42;5.95;;;3.40;;
10715;SDS011;5409;42.620;23.316;2024-03-08T09:49:09;6.28;;;3.53;;
10715;SDS011;5409;42.620;23.316;2024-03-08T09:51:36;3.55;;;3.08;;
10715;SDS011;5409;42.620;23.316;2024-03-08T09:54:05;8.00;;;3.22;;
10715;SDS011;5409;42.620;23.316;2024-03-08T09:56:37;4.18;;;3.30;;
10715;SDS011;5409;42.620;23.316;2024-03-08T09:59:06;3.55;;;3.10;;
10715;SDS011;5409;42.620;23.316;2024-03-08T10:01:50;5.05;;;3.65;;
10715;SDS011;5409;42.620;23.316;2024-03-08T10:04:17;3.25;;;2.88;;
10715;SDS011;5409;42.620;23.316;2024-03-08T10:06:43;3.67;;;3.03;;
10715;SDS011;5409;42.620;23.316;2024-03-08T10:09:09;3.80;;;2.88;;
10715;SDS011;5409;42.620;23.316;2024-03-08T10:11:35;4.43;;;3.00;;
10715;SDS011;5409;42.620;23.316;2024-03-08T10:14:00;3.20;;;2.90;;
10715;SDS011;5409;42.620;23.316;2024-03-08T10:16:27;2.55;;;2.33;;
10715;SDS011;5409;42.620;23.316;2024-03-08T10:18:53;2.95;;;2.63;;
10715;SDS011;5409;42.620;23.316;2024-03-08T10:21:20;2.40;;;2.20;;
10715;SDS011;5409;42.620;23.316;2024-03-08T10:23:46;3.78;;;2.40;;
10715;SDS011;5409;42.620;23.316;2024-03-08T10:26:13;2.30;;;2.00;;
10715;SDS011;5409;42.620;23.316;2024-03-08T10:28:47;2.65;;;2.03;;
10715;SDS011;5409;42.620;23.316;2024-03-08T10:31:16;3.78;;;1.85;;
10715;SDS011;5409;42.620;23.316;2024-03-08T10:33:43;1.50;;;1.40;;
10715;SDS011;5409;42.620;23.316;2024-03-08T10:36:09;2.28;;;1.60;;
10715;SDS011;5409;42.620;23.316;2024-03-08T10:38:39;2.00;;;1.83;;
10715;SDS011;5409;42.620;23.316;2024-03-08T10:41:07;2.53;;;2.35;;
10715;SDS011;5409;42.620;23.316;2024-03-08T10:46:43;5.47;;;2.45;;
10715;SDS011;5409;42.620;23.316;2024-03-08T10:49:48;2.00;;;1.85;;
10715;SDS011;5409;42.620;23.316;2024-03-08T10:52:17;2.20;;;1.80;;
10715;SDS011;5409;42.620;23.316;2024-03-08T10:54:44;3.17;;;2.38;;
10715;SDS011;5409;42.620;23.316;2024-03-08T10:57:10;3.17;;;2.50;;
10715;SDS011;5409;42.620;23.316;2024-03-08T10:59:37;2.35;;;1.85;;
10715;SDS011;5409;42.620;23.316;2024-03-08T11:02:04;4.45;;;2.05;;
10715;SDS011;5409;42.620;23.316;2024-03-08T11:04:31;2.30;;;2.08;;
10715;SDS011;5409;42.620;23.316;2024-03-08T11:07:01;3.90;;;1.92;;
10715;SDS011;5409;42.620;23.316;2024-03-08T11:09:32;2.30;;;1.58;;
10715;SDS011;5409;42.620;23.316;2024-03-08T11:14:55;2.00;;;1.88;;
10715;SDS011;5409;42.620;23.316;2024-03-08T11:17:49;2.25;;;1.85;;
10715;SDS011;5409;42.620;23.316;2024-03-08T11:20:16;2.33;;;2.22;;
10715;SDS011;5409;42.620;23.316;2024-03-08T11:22:54;1.85;;;1.50;;
10715;SDS011;5409;42.620;23.316;2024-03-08T11:25:38;4.28;;;2.40;;
10715;SDS011;5409;42.620;23.316;2024-03-08T11:28:14;2.72;;;1.73;;
10715;SDS011;5409;42.620;23.316;2024-03-08T11:36:02;2.35;;;2.00;;
10715;SDS011;5409;42.620;23.316;2024-03-08T11:38:42;2.53;;;1.60;;
10715;SDS011;5409;42.620;23.316;2024-03-08T11:41:17;1.80;;;1.70;;
10715;SDS011;5409;42.620;23.316;2024-03-08T11:43:46;1.60;;;1.48;;
10715;SDS011;5409;42.620;23.316;2024-03-08T11:46:12;1.98;;;1.55;;
10715;SDS011;5409;42.620;23.316;2024-03-08T11:48:39;1.67;;;1.55;;
10715;SDS011;5409;42.620;23.316;2024-03-08T11:51:07;2.00;;;1.90;;
10715;SDS011;5409;42.620;23.316;2024-03-08T11:53:33;2.55;;;1.85;;
10715;SDS011;5409;42.620;23.316;2024-03-08T11:56:07;2.08;;;1.90;;
10715;SDS011;5409;42.620;23.316;2024-03-08T11:58:37;1.77;;;1.63;;
10715;SDS011;5409;42.620;23.316;2024-03-08T12:01:04;1.90;;;1.80;;
10715;SDS011;5409;42.620;23.316;2024-03-08T12:03:34;2.03;;;1.90;;
10715;SDS011;5409;42.620;23.316;2024-03-08T12:06:00;2.75;;;2.10;;
10715;SDS011;5409;42.620;23.316;2024-03-08T12:08:26;2.00;;;1.67;;
10715;SDS011;5409;42.620;23.316;2024-03-08T12:10:55;3.08;;;2.88;;
10715;SDS011;5409;42.620;23.316;2024-03-08T12:13:27;1.55;;;1.40;;
10715;SDS011;5409;42.620;23.316;2024-03-08T12:15:57;2.75;;;1.90;;
10715;SDS011;5409;42.620;23.316;2024-03-08T12:18:29;1.50;;;1.40;;
10715;SDS011;5409;42.620;23.316;2024-03-08T12:21:05;4.65;;;1.75;;
10715;SDS011;5409;42.620;23.316;2024-03-08T12:23:33;2.20;;;2.10;;
10715;SDS011;5409;42.620;23.316;2024-03-08T12:28:40;2.10;;;1.90;;
10715;SDS011;5409;42.620;23.316;2024-03-08T12:31:09;4.00;;;2.60;;
10715;SDS011;5409;42.620;23.316;2024-03-08T12:33:37;1.67;;;1.58;;
10715;SDS011;5409;42.620;23.316;2024-03-08T12:36:13;1.67;;;1.58;;
10715;SDS011;5409;42.620;23.316;2024-03-08T12:38:40;1.92;;;1.73;;
10715;SDS011;5409;42.620;23.316;2024-03-08T12:41:09;1.33;;;1.23;;
10715;SDS011;5409;42.620;23.316;2024-03-08T12:43:34;2.30;;;1.63;;
10715;SDS011;5409;42.620;23.316;2024-03-08T12:46:00;2.63;;;1.70;;
10715;SDS011;5409;42.620;23.316;2024-03-08T12:48:25;1.55;;;1.45;;
10715;SDS011;5409;42.620;23.316;2024-03-08T12:50:51;3.38;;;1.75;;
10715;SDS011;5409;42.620;23.316;2024-03-08T12:53:17;2.00;;;1.75;;
10715;SDS011;5409;42.620;23.316;2024-03-08T12:55:42;5.25;;;1.55;;
10715;SDS011;5409;42.620;23.316;2024-03-08T12:58:08;2.00;;;1.77;;
10715;SDS011;5409;42.620;23.316;2024-03-08T13:00:34;2.35;;;1.67;;
10715;SDS011;5409;42.620;23.316;2024-03-08T13:03:01;1.92;;;1.63;;
10715;SDS011;5409;42.620;23.316;2024-03-08T13:05:27;1.92;;;1.17;;
10715;SDS011;5409;42.620;23.316;2024-03-08T13:07:53;2.72;;;1.23;;
10715;SDS011;5409;42.620;23.316;2024-03-08T13:10:19;1.35;;;1.25;;
10715;SDS011;5409;42.620;23.316;2024-03-08T13:12:45;1.55;;;1.45;;
10715;SDS011;5409;42.620;23.316;2024-03-08T13:15:11;1.42;;;1.33;;
10715;SDS011;5409;42.620;23.316;2024-03-08T13:17:45;1.65;;;1.40;;
10715;SDS011;5409;42.620;23.316;2024-03-08T13:20:11;2.13;;;1.58;;
10715;SDS011;5409;42.620;23.316;2024-03-08T13:22:41;2.33;;;1.50;;
10715;SDS011;5409;42.620;23.316;2024-03-08T13:25:07;1.50;;;1.33;;
10715;SDS011;5409;42.620;23.316;2024-03-08T13:27:38;0.90;;;0.90;;
10715;SDS011;5409;42.620;23.316;2024-03-08T13:30:05;1.67;;;1.30;;
10715;SDS011;5409;42.620;23.316;2024-03-08T13:32:32;1.75;;;1.65;;
10715;SDS011;5409;42.620;23.316;2024-03-08T13:34:57;2.20;;;1.50;;
10715;SDS011;5409;42.620;23.316;2024-03-08T13:37:22;1.10;;;1.00;;
10715;SDS011;5409;42.620;23.316;2024-03-08T13:39:48;1.50;;;1.40;;
10715;SDS011;5409;42.620;23.316;2024-03-08T13:42:13;1.50;;;1.40;;
10715;SDS011;5409;42.620;23.316;2024-03-08T13:44:44;4.43;;;1.50;;
10715;SDS011;5409;42.620;23.316;2024-03-08T13:47:13;1.23;;;1.13;;
10715;SDS011;5409;42.620;23.316;2024-03-08T13:49:39;1.40;;;1.30;;
10715;SDS011;5409;42.620;23.316;2024-03-08T13:52:04;1.33;;;1.23;;
10715;SDS011;5409;42.620;23.316;2024-03-08T13:54:30;1.25;;;1.05;;
10715;SDS011;5409;42.620;23.316;2024-03-08T13:56:56;1.45;;;1.30;;
10715;SDS011;5409;42.620;23.316;2024-03-08T13:59:22;1.40;;;1.30;;
10715;SDS011;5409;42.620;23.316;2024-03-08T14:01:49;1.88;;;1.33;;
10715;SDS011;5409;42.620;23.316;2024-03-08T14:04:14;2.15;;;1.45;;
10715;SDS011;5409;42.620;23.316;2024-03-08T14:06:42;1.88;;;1.48;;
10715;SDS011;5409;42.620;23.316;2024-03-08T14:09:09;1.75;;;1.55;;
10715;SDS011;5409;42.620;23.316;2024-03-08T14:11:41;2.33;;;2.15;;
10715;SDS011;5409;42.620;23.316;2024-03-08T14:14:07;4.07;;;1.48;;
10715;SDS011;5409;42.620;23.316;2024-03-08T14:16:34;1.52;;;1.33;;
10715;SDS011;5409;42.620;23.316;2024-03-08T14:19:01;1.85;;;1.75;;
10715;SDS011;5409;42.620;23.316;2024-03-08T14:21:30;2.42;;;1.45;;
10715;SDS011;5409;42.620;23.316;2024-03-08T14:23:58;1.65;;;1.55;;
10715;SDS011;5409;42.620;23.316;2024-03-08T14:26:24;1.45;;;1.30;;
10715;SDS011;5409;42.620;23.316;2024-03-08T14:28:49;2.50;;;1.70;;
10715;SDS011;5409;42.620;23.316;2024-03-08T14:31:19;3.35;;;1.50;;
10715;SDS011;5409;42.620;23.316;2024-03-08T14:33:48;1.77;;;1.23;;
10715;SDS011;5409;42.620;23.316;2024-03-08T14:36:14;3.67;;;1.50;;
10715;SDS011;5409;42.620;23.316;2024-03-08T14:38:42;1.40;;;1.30;;
10715;SDS011;5409;42.620;23.316;2024-03-08T14:41:07;1.35;;;1.23;;
10715;SDS011;5409;42.620;23.316;2024-03-08T14:43:33;1.70;;;1.20;;
10715;SDS011;5409;42.620;23.316;2024-03-08T14:45:58;2.85;;;1.10;;
10715;SDS011;5409;42.620;23.316;2024-03-08T14:48:24;3.60;;;1.30;;
10715;SDS011;5409;42.620;23.316;2024-03-08T14:50:49;2.53;;;1.55;;
10715;SDS011;5409;42.620;23.316;2024-03-08T14:53:15;1.20;;;1.10;;
10715;SDS011;5409;42.620;23.316;2024-03-08T14:55:42;2.58;;;1.30;;
10715;SDS011;5409;42.620;23.316;2024-03-08T14:58:08;3.47;;;1.50;;